Jack Guidry — WDF2422 — position and weather

sailwx.info

Track history (hours):
 
Tides and Currents Weather Stations Pressure Air Temp Water Temp Dewpoint Dewpoint Depression Visibility Wind Speed Wind Dir Waves Ship Positions

Jack Guidry

Owner: Enterprise Marine Services, LLC, San Antonio, TX. More information available from US FCC via Universal Licensing System and Coast Guard Vessel Documentation Center.

Last reported at 2017-Feb-22 03:34 UTC. Time now 2017-Feb-22 04:03 UTC.
Position N 30°08' W 093°19'.

Length 22 m; draft 3 m.

Type: Other ship. MMSI: 367003430.

Date/timePositionNaut miles runAvg speedWind from/ knotsBaromVisibWave heightAir tempDewpointWater temp
2017-Feb-22 03:34N 30°08' W 093°19'0 0.0
2017-Feb-22 02:34N 30°08' W 093°19'0 0.0
2017-Feb-22 01:34N 30°08' W 093°19'0 0.0
2017-Feb-22 00:33N 30°08' W 093°19'0 0.0
2017-Feb-21 23:34N 30°08' W 093°19'0 0.0
2017-Feb-21 22:34N 30°08' W 093°19'0 0.0
2017-Feb-21 21:34N 30°08' W 093°19'0 0.0
2017-Feb-21 20:33N 30°08' W 093°19'0 0.0
2017-Feb-21 19:34N 30°08' W 093°19'2 1.7
2017-Feb-21 18:34N 30°07' W 093°20'1 1.1
2017-Feb-21 17:34N 30°06' W 093°19'3 2.6
2017-Feb-21 16:34N 30°04' W 093°21'5 5.3
2017-Feb-21 15:34N 30°04' W 093°27'82 4.5
2017-Feb-20 21:22N 29°32' W 094°54'5 6.4
2017-Feb-20 20:33N 29°36' W 094°57'7 6.7
2017-Feb-20 19:32N 29°42' W 095°00'6 5.5
2017-Feb-20 18:27N 29°47' W 095°05'0 0.1
2017-Feb-20 17:33N 29°47' W 095°05'0 0.0
2017-Feb-20 16:04N 29°47' W 095°05'0 0.0
2017-Feb-20 13:33N 29°47' W 095°05'1 0.0
2017-Feb-18 23:26N 29°46' W 095°05'1 0.0
2017-Feb-17 17:33N 29°47' W 095°05'1 0.0
2017-Feb-17 01:19N 29°47' W 095°04'0 0.0
2017-Feb-17 00:21N 29°47' W 095°04'0 0.0
2017-Feb-16 23:34N 29°47' W 095°04'4 2.8
2017-Feb-16 22:14N 29°44' W 095°07'6 0.3
2017-Feb-16 02:21N 29°44' W 095°13'4 4.5
2017-Feb-16 01:27N 29°44' W 095°09'5 4.7
2017-Feb-16 00:20N 29°44' W 095°03'4 5.5
2017-Feb-15 23:33N 29°41' W 094°59'7 6.7
2017-Feb-15 22:33N 29°35' W 094°56'7 7.3
2017-Feb-15 21:33N 29°29' W 094°51'  
2017-Feb-13 11:28N 30°04' W 093°33'3 3.4
2017-Feb-13 10:34N 30°04' W 093°30'4 4.1
2017-Feb-13 09:34N 30°04' W 093°25'3 3.2
2017-Feb-13 08:34N 30°04' W 093°21'3 3.1
2017-Feb-13 07:34N 30°06' W 093°20'2 1.6
2017-Feb-13 06:34N 30°08' W 093°20'0 0.0
2017-Feb-13 05:34N 30°08' W 093°20'0 0.0
2017-Feb-13 04:33N 30°08' W 093°20'0 0.2
2017-Feb-13 03:34N 30°08' W 093°19'0 0.1
2017-Feb-13 02:34N 30°08' W 093°19'0 0.0
2017-Feb-13 01:34N 30°08' W 093°19'0 0.0
2017-Feb-13 00:34N 30°08' W 093°19'0 0.1
2017-Feb-12 23:33N 30°08' W 093°19'0 0.0
2017-Feb-12 22:34N 30°08' W 093°19'0 0.0
2017-Feb-12 21:34N 30°08' W 093°19'0 0.0
2017-Feb-12 20:33N 30°08' W 093°19'0 0.0
2017-Feb-12 19:34N 30°08' W 093°19'0 0.0
2017-Feb-12 18:34N 30°08' W 093°19'0 0.0
2017-Feb-12 17:34N 30°08' W 093°19'0 0.0
2017-Feb-12 16:34N 30°08' W 093°19'0 0.0
2017-Feb-12 15:34N 30°08' W 093°19'0 0.0
2017-Feb-12 14:34N 30°08' W 093°19'0 0.0
2017-Feb-12 13:34N 30°08' W 093°19'0 0.0
2017-Feb-12 12:33N 30°08' W 093°19'0 0.0
2017-Feb-12 11:33N 30°08' W 093°19'0 0.0
2017-Feb-12 10:34N 30°08' W 093°19'0 0.0
2017-Feb-12 09:34N 30°08' W 093°19'0 0.0
2017-Feb-12 08:34N 30°08' W 093°19'0 0.0
2017-Feb-12 07:34N 30°08' W 093°19'0 0.2
2017-Feb-12 06:34N 30°08' W 093°19'0 0.0
2017-Feb-12 05:34N 30°08' W 093°19'0 0.0
2017-Feb-12 04:33N 30°08' W 093°19'  
Track history (hours):
 
Tides and Currents Weather Stations Pressure Air Temp Water Temp Dewpoint Dewpoint Depression Visibility Wind Speed Wind Dir Waves Ship Positions

Jack Guidry

Owner: Enterprise Marine Services, LLC, San Antonio, TX. More information available from US FCC via Universal Licensing System and Coast Guard Vessel Documentation Center.

Last reported at 2017-Feb-22 03:34 UTC. Time now 2017-Feb-22 04:03 UTC.
Position N 30°08' W 093°19'.

Length 22 m; draft 3 m.

Type: Other ship. MMSI: 367003430.

Date/timePositionNaut miles runAvg speedWind from/ knotsBaromVisibWave heightAir tempDewpointWater temp
2017-Feb-22 03:34N 30°08' W 093°19'0 0.0
2017-Feb-22 02:34N 30°08' W 093°19'0 0.0
2017-Feb-22 01:34N 30°08' W 093°19'0 0.0
2017-Feb-22 00:33N 30°08' W 093°19'0 0.0
2017-Feb-21 23:34N 30°08' W 093°19'0 0.0
2017-Feb-21 22:34N 30°08' W 093°19'0 0.0
2017-Feb-21 21:34N 30°08' W 093°19'0 0.0
2017-Feb-21 20:33N 30°08' W 093°19'0 0.0
2017-Feb-21 19:34N 30°08' W 093°19'2 1.7
2017-Feb-21 18:34N 30°07' W 093°20'1 1.1
2017-Feb-21 17:34N 30°06' W 093°19'3 2.6
2017-Feb-21 16:34N 30°04' W 093°21'5 5.3
2017-Feb-21 15:34N 30°04' W 093°27'82 4.5
2017-Feb-20 21:22N 29°32' W 094°54'5 6.4
2017-Feb-20 20:33N 29°36' W 094°57'7 6.7
2017-Feb-20 19:32N 29°42' W 095°00'6 5.5
2017-Feb-20 18:27N 29°47' W 095°05'0 0.1
2017-Feb-20 17:33N 29°47' W 095°05'0 0.0
2017-Feb-20 16:04N 29°47' W 095°05'0 0.0
2017-Feb-20 13:33N 29°47' W 095°05'1 0.0
2017-Feb-18 23:26N 29°46' W 095°05'1 0.0
2017-Feb-17 17:33N 29°47' W 095°05'1 0.0
2017-Feb-17 01:19N 29°47' W 095°04'0 0.0
2017-Feb-17 00:21N 29°47' W 095°04'0 0.0
2017-Feb-16 23:34N 29°47' W 095°04'4 2.8
2017-Feb-16 22:14N 29°44' W 095°07'6 0.3
2017-Feb-16 02:21N 29°44' W 095°13'4 4.5
2017-Feb-16 01:27N 29°44' W 095°09'5 4.7
2017-Feb-16 00:20N 29°44' W 095°03'4 5.5
2017-Feb-15 23:33N 29°41' W 094°59'7 6.7
2017-Feb-15 22:33N 29°35' W 094°56'7 7.3
2017-Feb-15 21:33N 29°29' W 094°51'  
2017-Feb-13 11:28N 30°04' W 093°33'3 3.4
2017-Feb-13 10:34N 30°04' W 093°30'4 4.1
2017-Feb-13 09:34N 30°04' W 093°25'3 3.2
2017-Feb-13 08:34N 30°04' W 093°21'3 3.1
2017-Feb-13 07:34N 30°06' W 093°20'2 1.6
2017-Feb-13 06:34N 30°08' W 093°20'0 0.0
2017-Feb-13 05:34N 30°08' W 093°20'0 0.0
2017-Feb-13 04:33N 30°08' W 093°20'0 0.2
2017-Feb-13 03:34N 30°08' W 093°19'0 0.1
2017-Feb-13 02:34N 30°08' W 093°19'0 0.0
2017-Feb-13 01:34N 30°08' W 093°19'0 0.0
2017-Feb-13 00:34N 30°08' W 093°19'0 0.1
2017-Feb-12 23:33N 30°08' W 093°19'0 0.0
2017-Feb-12 22:34N 30°08' W 093°19'0 0.0
2017-Feb-12 21:34N 30°08' W 093°19'0 0.0
2017-Feb-12 20:33N 30°08' W 093°19'0 0.0
2017-Feb-12 19:34N 30°08' W 093°19'0 0.0
2017-Feb-12 18:34N 30°08' W 093°19'0 0.0
2017-Feb-12 17:34N 30°08' W 093°19'0 0.0
2017-Feb-12 16:34N 30°08' W 093°19'0 0.0
2017-Feb-12 15:34N 30°08' W 093°19'0 0.0
2017-Feb-12 14:34N 30°08' W 093°19'0 0.0
2017-Feb-12 13:34N 30°08' W 093°19'0 0.0
2017-Feb-12 12:33N 30°08' W 093°19'0 0.0
2017-Feb-12 11:33N 30°08' W 093°19'0 0.0
2017-Feb-12 10:34N 30°08' W 093°19'0 0.0
2017-Feb-12 09:34N 30°08' W 093°19'0 0.0
2017-Feb-12 08:34N 30°08' W 093°19'0 0.0
2017-Feb-12 07:34N 30°08' W 093°19'0 0.2
2017-Feb-12 06:34N 30°08' W 093°19'0 0.0
2017-Feb-12 05:34N 30°08' W 093°19'0 0.0
2017-Feb-12 04:33N 30°08' W 093°19'  

Dump ship's entire track history